Airport View

Enter AWOS ICAO identifier for current METAR.

ex. KFNL

KRTS 041625Z AUTO VRB03KT 10SM CLR 23/01 A3018 RMK AO2

5 Aug 2020 13:43

Frequency: 135.175

Phone: 775-677-0589

Other Area AWOS: KRNO - KTRK - KCXP - KMEV

TAF KRNO 051120Z 0512/0612 VRB04KT P6SM SKC FM052200 29014G24KT P6SM FEW100 FM060500 32008KT P6SM SKC